createdAt,value
2019-05-18T00:01:46.588Z,19.25
2019-05-18T00:04:16.077Z,22.32
2019-05-18T00:06:45.698Z,23.52
2019-05-18T00:09:15.366Z,20.70
2019-05-18T00:11:44.913Z,18.55
2019-05-18T00:14:16.972Z,21.37
2019-05-18T00:16:46.400Z,22.32
2019-05-18T00:19:15.798Z,22.17
2019-05-18T00:21:47.565Z,23.32
2019-05-18T00:24:17.005Z,21.97
2019-05-18T00:26:47.841Z,22.85
2019-05-18T00:29:17.848Z,22.20
2019-05-18T00:31:47.244Z,21.33
2019-05-18T00:34:17.762Z,19.42
2019-05-18T00:36:47.158Z,22.00
2019-05-18T00:39:18.004Z,21.23
2019-05-18T00:41:47.340Z,21.10
2019-05-18T00:44:16.760Z,22.60
2019-05-18T00:46:46.143Z,25.30
2019-05-18T00:49:15.498Z,22.17
2019-05-18T00:51:45.042Z,21.23
2019-05-18T00:54:14.362Z,24.40
2019-05-18T00:56:43.808Z,22.77
2019-05-18T00:59:16.232Z,23.42
2019-05-18T01:01:45.894Z,20.55
2019-05-18T01:04:15.262Z,25.10
2019-05-18T01:06:44.766Z,24.95
2019-05-18T01:09:13.951Z,24.35
2019-05-18T01:11:43.290Z,23.30
2019-05-18T01:14:12.566Z,21.02
2019-05-18T01:16:41.953Z,23.40
2019-05-18T01:19:11.257Z,26.80
2019-05-18T01:21:40.640Z,24.03
2019-05-18T01:24:09.894Z,21.93
2019-05-18T01:26:39.295Z,22.07
2019-05-18T01:29:08.986Z,25.12
2019-05-18T01:31:38.269Z,22.80
2019-05-18T01:34:07.607Z,24.73
2019-05-18T01:36:36.859Z,25.30
2019-05-18T01:39:07.162Z,23.70
2019-05-18T01:41:36.632Z,26.87
2019-05-18T01:44:05.964Z,27.62
2019-05-18T01:46:35.414Z,28.47
2019-05-18T01:49:04.766Z,25.37
2019-05-18T01:51:34.197Z,25.57
2019-05-18T01:54:03.554Z,25.15
2019-05-18T01:56:33.001Z,26.50
2019-05-18T01:59:02.358Z,27.35
2019-05-18T02:01:31.758Z,25.20
2019-05-18T02:04:01.154Z,27.98
2019-05-18T02:06:30.559Z,26.80
2019-05-18T02:08:59.816Z,28.07
2019-05-18T02:11:29.192Z,27.20
2019-05-18T02:13:58.511Z,29.15
2019-05-18T02:16:27.827Z,25.93
2019-05-18T02:18:57.125Z,28.80
2019-05-18T02:21:26.475Z,22.90
2019-05-18T02:23:57.812Z,25.60
2019-05-18T02:26:27.094Z,27.50
2019-05-18T02:28:57.524Z,30.80
2019-05-18T02:31:28.377Z,29.20
2019-05-18T02:33:57.748Z,26.62
2019-05-18T02:36:27.151Z,30.57
2019-05-18T02:38:59.652Z,28.30
2019-05-18T02:41:29.003Z,29.92
2019-05-18T02:43:58.319Z,30.62
2019-05-18T02:46:27.717Z,34.13
2019-05-18T02:48:57.319Z,25.97
2019-05-18T02:51:26.669Z,31.62
2019-05-18T02:53:56.011Z,30.70
2019-05-18T02:56:25.424Z,32.47
2019-05-18T02:58:54.825Z,30.10
2019-05-18T03:01:24.183Z,30.10
2019-05-18T03:03:53.554Z,30.45
2019-05-18T03:06:22.914Z,29.48
2019-05-18T03:08:52.242Z,31.97
2019-05-18T03:11:24.401Z,30.25
2019-05-18T03:13:53.755Z,32.60
2019-05-18T03:16:23.337Z,29.85
2019-05-18T03:19:07.489Z,32.63
2019-05-18T03:21:23.992Z,31.42
2019-05-18T03:23:53.545Z,32.60
2019-05-18T03:26:22.890Z,34.48
2019-05-18T03:28:52.232Z,37.17
2019-05-18T03:31:21.604Z,32.93
2019-05-18T03:33:52.949Z,33.28
2019-05-18T03:36:22.553Z,34.83
2019-05-18T03:38:51.969Z,31.68
2019-05-18T03:41:21.238Z,34.92
2019-05-18T03:43:50.558Z,34.58
2019-05-18T03:46:23.809Z,35.00
2019-05-18T03:48:51.004Z,34.73
2019-05-18T03:51:20.311Z,34.08
2019-05-18T03:53:49.644Z,36.73
2019-05-18T03:56:18.995Z,36.48
2019-05-18T03:58:48.502Z,38.20
2019-05-18T04:01:17.774Z,33.42
2019-05-18T04:03:47.117Z,35.57
2019-05-18T04:06:16.312Z,36.83
2019-05-18T04:08:45.693Z,34.70
2019-05-18T04:11:15.010Z,35.75
2019-05-18T04:13:44.335Z,35.00
2019-05-18T04:16:13.538Z,32.40
2019-05-18T04:18:42.853Z,35.23
2019-05-18T04:21:12.161Z,39.67
2019-05-18T04:23:41.414Z,34.53
2019-05-18T04:26:10.775Z,34.80
2019-05-18T04:28:40.067Z,36.53
2019-05-18T04:31:09.375Z,37.63
2019-05-18T04:33:38.535Z,35.43
2019-05-18T04:36:08.149Z,35.85
2019-05-18T04:38:37.540Z,31.93
2019-05-18T04:41:06.801Z,38.05
2019-05-18T04:43:36.050Z,31.77
2019-05-18T04:46:06.536Z,36.13
2019-05-18T04:48:36.571Z,38.40
2019-05-18T04:53:33.889Z,35.90
2019-05-18T04:56:02.986Z,34.63
2019-05-18T04:58:32.237Z,35.88
2019-05-18T05:01:01.410Z,36.95
2019-05-18T05:03:30.632Z,32.13
2019-05-18T05:06:00.054Z,34.80
2019-05-18T05:08:29.413Z,36.73
2019-05-18T05:10:58.616Z,40.03
2019-05-18T05:13:27.946Z,39.07
2019-05-18T05:15:57.367Z,37.07
2019-05-18T05:18:29.074Z,36.05
2019-05-18T05:20:58.456Z,38.17
2019-05-18T05:23:27.778Z,35.68
2019-05-18T05:25:57.211Z,32.73
2019-05-18T05:28:29.330Z,32.65
2019-05-18T05:30:58.821Z,35.08
2019-05-18T05:33:28.104Z,36.48
2019-05-18T05:35:57.349Z,33.80
2019-05-18T05:38:26.687Z,36.63
2019-05-18T05:40:56.006Z,32.85
2019-05-18T05:43:25.309Z,33.13
2019-05-18T05:45:54.580Z,32.70
2019-05-18T05:48:23.823Z,31.73
2019-05-18T05:50:53.439Z,32.40
2019-05-18T05:53:22.748Z,30.77
2019-05-18T05:55:52.007Z,30.90
2019-05-18T05:58:21.290Z,27.77
2019-05-18T06:00:50.718Z,25.63
2019-05-18T06:03:20.040Z,28.65
2019-05-18T06:05:49.363Z,23.92
2019-05-18T06:08:21.199Z,27.10
2019-05-18T06:10:50.625Z,23.70
2019-05-18T06:13:19.895Z,25.23
2019-05-18T06:15:49.153Z,22.60
2019-05-18T06:18:18.436Z,24.37
2019-05-18T06:20:51.509Z,24.27
2019-05-18T06:23:18.820Z,21.07
2019-05-18T06:25:48.063Z,19.70
2019-05-18T06:28:17.343Z,19.03
2019-05-18T06:30:46.573Z,20.92
2019-05-18T06:33:18.233Z,18.83
2019-05-18T06:35:47.704Z,18.82
2019-05-18T06:38:17.349Z,21.40
2019-05-18T06:40:46.503Z,18.60
2019-05-18T06:43:17.035Z,18.97
2019-05-18T06:45:46.313Z,18.98
2019-05-18T06:48:15.534Z,18.95
2019-05-18T06:50:44.785Z,16.37
2019-05-18T06:53:14.186Z,17.17
2019-05-18T06:55:43.745Z,13.93
2019-05-18T06:58:13.594Z,16.90
2019-05-18T07:00:42.966Z,14.30
2019-05-18T07:03:12.258Z,13.38
2019-05-18T07:05:41.537Z,15.00
2019-05-18T07:08:10.751Z,12.57
2019-05-18T07:10:40.090Z,12.87
2019-05-18T07:13:09.355Z,10.55
2019-05-18T07:15:38.722Z,9.67
2019-05-18T07:18:07.862Z,12.70
2019-05-18T07:20:43.480Z,11.03
2019-05-18T07:23:14.707Z,13.83
2019-05-18T07:25:44.047Z,12.70
2019-05-18T07:28:16.370Z,11.15
2019-05-18T07:30:45.833Z,11.83
2019-05-18T07:33:15.122Z,12.30
2019-05-18T07:35:44.407Z,11.60
2019-05-18T07:38:13.736Z,13.13
2019-05-18T07:40:43.138Z,11.43
2019-05-18T07:43:12.568Z,11.43
2019-05-18T07:45:41.943Z,14.98
2019-05-18T07:48:12.644Z,11.38
2019-05-18T07:50:41.969Z,12.63
2019-05-18T07:53:14.186Z,12.45
2019-05-18T07:55:43.483Z,11.70
2019-05-18T07:58:12.951Z,11.63
2019-05-18T08:00:42.332Z,12.98
2019-05-18T08:03:14.358Z,12.85
2019-05-18T08:05:56.756Z,12.40
2019-05-18T08:08:26.079Z,11.45
2019-05-18T08:10:55.291Z,9.75
2019-05-18T08:13:24.605Z,11.27
2019-05-18T08:15:53.825Z,12.33
2019-05-18T08:18:23.300Z,9.57
2019-05-18T08:20:52.762Z,11.08
2019-05-18T08:23:21.929Z,12.07
2019-05-18T08:25:51.344Z,9.63
2019-05-18T08:28:20.693Z,9.63
2019-05-18T08:30:50.087Z,9.70
2019-05-18T08:33:19.526Z,11.30
2019-05-18T08:35:48.912Z,9.43
2019-05-18T08:38:18.467Z,9.40
2019-05-18T08:40:47.973Z,8.45
2019-05-18T08:43:26.282Z,9.75
2019-05-18T08:45:55.788Z,7.47
2019-05-18T08:48:25.071Z,8.98
2019-05-18T08:50:54.432Z,9.08
2019-05-18T08:53:23.828Z,9.08
2019-05-18T08:55:53.202Z,9.40
2019-05-18T08:58:22.551Z,9.05
2019-05-18T09:00:52.062Z,9.05
2019-05-18T09:03:21.398Z,9.33
2019-05-18T09:05:50.594Z,9.40
2019-05-18T09:08:19.864Z,9.27
2019-05-18T09:10:49.397Z,10.08
2019-05-18T09:13:18.824Z,11.10
2019-05-18T09:15:48.107Z,9.18
2019-05-18T09:18:19.776Z,8.38
2019-05-18T09:20:49.062Z,8.98
2019-05-18T09:23:18.383Z,8.93
2019-05-18T09:25:48.261Z,8.43
2019-05-18T09:28:19.210Z,8.00
2019-05-18T09:30:48.434Z,6.58
2019-05-18T09:33:17.849Z,8.65
2019-05-18T09:35:47.096Z,6.83
2019-05-18T09:38:16.990Z,6.25
2019-05-18T09:40:46.869Z,6.28
2019-05-18T09:43:16.264Z,10.15
2019-05-18T09:45:48.134Z,7.20
2019-05-18T09:48:17.565Z,9.30
2019-05-18T09:50:47.055Z,7.42
2019-05-18T09:53:16.663Z,6.12
2019-05-18T09:55:46.780Z,6.87
2019-05-18T09:58:15.992Z,7.83
2019-05-18T10:00:45.461Z,7.47
2019-05-18T10:03:14.715Z,7.40
2019-05-18T10:05:44.040Z,6.00
2019-05-18T10:08:13.345Z,6.47
2019-05-18T10:10:42.643Z,8.28
2019-05-18T10:13:11.884Z,6.10
2019-05-18T10:15:41.167Z,6.37
2019-05-18T10:18:10.363Z,5.67
2019-05-18T10:20:39.535Z,6.33
2019-05-18T10:23:12.826Z,7.60
2019-05-18T10:25:40.087Z,5.97
2019-05-18T10:28:09.483Z,6.92
2019-05-18T10:30:39.048Z,5.65
2019-05-18T10:33:08.488Z,6.03
2019-05-18T10:35:53.087Z,6.78
2019-05-18T10:38:27.089Z,7.42
2019-05-18T10:40:56.478Z,6.53
2019-05-18T10:43:25.816Z,6.50
2019-05-18T10:45:58.723Z,6.53
2019-05-18T10:48:27.871Z,6.45
2019-05-18T10:50:57.036Z,9.10
2019-05-18T10:53:29.090Z,7.30
2019-05-18T10:55:57.570Z,6.28
2019-05-18T10:58:26.701Z,5.33
2019-05-18T11:00:59.294Z,6.93
2019-05-18T11:03:28.862Z,6.12
2019-05-18T11:05:58.035Z,6.30
2019-05-18T11:08:27.527Z,7.10
2019-05-18T11:10:57.194Z,5.97
2019-05-18T11:13:26.925Z,6.05
2019-05-18T11:15:56.081Z,7.28
2019-05-18T11:18:25.270Z,6.63
2019-05-18T11:20:54.358Z,5.03
2019-05-18T11:23:23.597Z,5.50
2019-05-18T11:25:52.855Z,5.97
2019-05-18T11:28:22.025Z,6.05
2019-05-18T11:30:51.347Z,5.50
2019-05-18T11:33:20.448Z,5.08
2019-05-18T11:35:49.725Z,5.17
2019-05-18T11:38:19.110Z,5.70
2019-05-18T11:40:48.329Z,4.55
2019-05-18T11:43:17.639Z,4.78
2019-05-18T11:45:46.852Z,4.50
2019-05-18T11:48:15.932Z,5.25
2019-05-18T11:50:45.173Z,5.27
2019-05-18T11:53:14.479Z,5.62
2019-05-18T11:55:43.820Z,5.67
2019-05-18T11:58:13.026Z,4.55
2019-05-18T12:00:42.264Z,4.35
2019-05-18T12:03:11.466Z,4.22
2019-05-18T12:05:40.566Z,4.08
2019-05-18T12:08:09.659Z,3.93
2019-05-18T12:10:39.082Z,3.60
2019-05-18T12:13:08.314Z,3.30
2019-05-18T12:15:37.618Z,4.40
2019-05-18T12:18:06.953Z,4.35
2019-05-18T12:20:36.188Z,4.70
2019-05-18T12:23:08.179Z,5.33
2019-05-18T12:25:36.461Z,4.03
2019-05-18T12:28:05.889Z,4.45
2019-05-18T12:30:35.107Z,3.98
2019-05-18T12:33:06.637Z,3.87
2019-05-18T12:35:35.983Z,4.72
2019-05-18T12:38:05.283Z,4.67
2019-05-18T12:40:34.583Z,3.60
2019-05-18T12:43:03.933Z,4.70
2019-05-18T12:45:36.228Z,3.90
2019-05-18T12:48:05.450Z,3.85
2019-05-18T12:50:34.816Z,3.37
2019-05-18T12:53:04.243Z,3.62
2019-05-18T12:55:33.394Z,3.87
2019-05-18T12:58:02.580Z,3.27
2019-05-18T13:00:32.087Z,3.05
2019-05-18T13:03:01.331Z,3.30
2019-05-18T13:05:30.597Z,2.42
2019-05-18T13:07:59.844Z,2.65
2019-05-18T13:10:29.163Z,3.02
2019-05-18T13:12:58.251Z,2.47
2019-05-18T13:15:27.538Z,2.35
2019-05-18T13:17:56.846Z,2.10
2019-05-18T13:20:26.253Z,2.65
2019-05-18T13:22:55.501Z,2.40
2019-05-18T13:25:24.802Z,2.30
2019-05-18T13:27:53.796Z,2.67
2019-05-18T13:30:23.158Z,2.27
2019-05-18T13:32:52.469Z,2.67
2019-05-18T13:35:22.509Z,2.75
2019-05-18T13:37:51.686Z,2.75
2019-05-18T13:40:21.192Z,2.65
2019-05-18T13:42:50.458Z,3.02
2019-05-18T13:45:20.192Z,2.33
2019-05-18T13:47:50.140Z,2.77
2019-05-18T13:50:19.477Z,2.50
2019-05-18T13:52:48.837Z,2.95
2019-05-18T13:55:19.104Z,2.80
2019-05-18T13:57:48.269Z,2.55
2019-05-18T14:00:18.087Z,3.12
2019-05-18T14:05:16.565Z,2.45
2019-05-18T14:07:45.846Z,3.08
2019-05-18T14:10:15.124Z,2.33
2019-05-18T14:12:44.358Z,2.40
2019-05-18T14:15:15.143Z,2.58
2019-05-18T14:17:44.566Z,3.00
2019-05-18T14:20:14.598Z,2.92
2019-05-18T14:22:43.968Z,8.78
2019-05-18T14:25:19.181Z,9.98
2019-05-18T14:27:44.161Z,2.80
2019-05-18T14:30:13.708Z,3.22
2019-05-18T14:32:43.060Z,2.50
2019-05-18T14:35:12.428Z,3.05
2019-05-18T14:37:41.695Z,3.05
2019-05-18T14:40:11.125Z,3.02
2019-05-18T14:42:40.349Z,3.02
2019-05-18T14:45:10.895Z,2.65
2019-05-18T14:47:40.245Z,2.42
2019-05-18T14:50:10.169Z,2.45
2019-05-18T14:52:39.394Z,2.50
2019-05-18T14:55:08.863Z,3.08
2019-05-18T14:57:38.127Z,2.50
2019-05-18T15:00:08.202Z,2.85
2019-05-18T15:02:37.547Z,3.20
2019-05-18T15:05:06.887Z,2.65
2019-05-18T15:07:36.133Z,3.52
2019-05-18T15:10:05.969Z,2.92
2019-05-18T15:12:35.195Z,3.33
2019-05-18T15:15:05.327Z,2.58
2019-05-18T15:17:34.617Z,3.25
2019-05-18T15:20:03.858Z,2.62
2019-05-18T15:22:33.234Z,2.58
2019-05-18T15:25:02.458Z,2.62
2019-05-18T15:27:31.732Z,2.35
2019-05-18T15:30:00.930Z,2.55
2019-05-18T15:32:30.257Z,2.95
2019-05-18T15:34:59.541Z,2.90
2019-05-18T15:37:28.774Z,2.75
2019-05-18T15:39:58.036Z,3.40
2019-05-18T15:42:27.384Z,3.67
2019-05-18T15:44:56.549Z,2.75
2019-05-18T15:47:25.650Z,2.65
2019-05-18T15:49:54.904Z,3.05
2019-05-18T15:52:24.466Z,3.52
2019-05-18T15:54:53.755Z,3.10
2019-05-18T15:57:23.026Z,3.05
2019-05-18T15:59:52.225Z,2.80
2019-05-18T16:02:21.545Z,3.20
2019-05-18T16:04:51.494Z,3.20
2019-05-18T16:07:20.803Z,3.08
2019-05-18T16:09:50.162Z,3.02
2019-05-18T16:12:22.453Z,2.80
2019-05-18T16:14:51.652Z,2.77
2019-05-18T16:17:36.973Z,3.22
2019-05-18T16:19:53.863Z,3.05
2019-05-18T16:22:23.099Z,3.55
2019-05-18T16:24:52.346Z,3.25
2019-05-18T16:27:21.842Z,4.28
2019-05-18T16:29:51.261Z,3.25
2019-05-18T16:32:20.567Z,2.75
2019-05-18T16:34:49.902Z,3.10
2019-05-18T16:37:19.111Z,2.75
2019-05-18T16:39:49.577Z,3.17
2019-05-18T16:42:19.445Z,4.00
2019-05-18T16:44:49.296Z,2.65
2019-05-18T16:47:19.946Z,3.02
2019-05-18T16:49:49.288Z,2.83
2019-05-18T16:52:18.447Z,3.55
2019-05-18T16:54:47.711Z,3.27
2019-05-18T16:57:16.843Z,3.30
2019-05-18T16:59:49.003Z,4.62
2019-05-18T17:02:30.785Z,5.05
2019-05-18T17:04:49.608Z,9.23
2019-05-18T17:07:18.797Z,15.30
2019-05-18T17:09:48.287Z,9.50
2019-05-18T17:12:17.642Z,15.10
2019-05-18T17:14:47.186Z,9.50
2019-05-18T17:17:16.710Z,7.12
2019-05-18T17:19:45.981Z,7.62
2019-05-18T17:22:15.333Z,9.28
2019-05-18T17:24:48.105Z,5.62
2019-05-18T17:27:17.462Z,5.42
2019-05-18T17:29:46.860Z,5.05
2019-05-18T17:32:16.101Z,6.70
2019-05-18T17:34:45.410Z,8.18
2019-05-18T17:37:14.593Z,8.55
2019-05-18T17:39:43.834Z,13.58
2019-05-18T17:42:13.178Z,14.20
2019-05-18T17:44:42.320Z,45.23
2019-05-18T17:47:11.540Z,62.43
2019-05-18T17:49:40.931Z,171.77
2019-05-18T17:52:10.137Z,17.30
2019-05-18T17:54:39.336Z,22.37
2019-05-18T17:57:09.245Z,10.78
2019-05-18T17:59:38.893Z,15.88
2019-05-18T18:02:10.933Z,19.62
2019-05-18T18:04:40.431Z,11.38
2019-05-18T18:07:11.171Z,9.83
2019-05-18T18:09:40.331Z,17.85
2019-05-18T18:12:09.487Z,14.55
2019-05-18T18:14:38.944Z,8.38
2019-05-18T18:17:08.280Z,8.98
2019-05-18T18:19:37.540Z,7.95
2019-05-18T18:22:06.737Z,8.83
2019-05-18T18:24:36.142Z,8.68
2019-05-18T18:27:05.417Z,10.98
2019-05-18T18:29:34.515Z,8.03
2019-05-18T18:32:03.764Z,9.23
2019-05-18T18:34:32.964Z,10.45
2019-05-18T18:37:02.063Z,9.95
2019-05-18T18:39:31.095Z,5.67
2019-05-18T18:42:00.355Z,6.50
2019-05-18T18:44:29.417Z,6.22
2019-05-18T18:46:58.670Z,7.08
2019-05-18T18:49:27.954Z,5.35
2019-05-18T18:51:57.068Z,6.42
2019-05-18T18:54:26.295Z,8.23
2019-05-18T18:56:55.416Z,9.05
2019-05-18T18:59:24.739Z,9.55
2019-05-18T19:01:56.948Z,6.35
2019-05-18T19:04:26.439Z,5.12
2019-05-18T19:06:55.707Z,5.80
2019-05-18T19:09:25.152Z,6.70
2019-05-18T19:11:54.340Z,5.45
2019-05-18T19:14:23.829Z,17.67
2019-05-18T19:16:53.110Z,8.63
2019-05-18T19:19:22.380Z,7.37
2019-05-18T19:21:51.687Z,9.20
2019-05-18T19:24:20.755Z,5.95
2019-05-18T19:26:49.997Z,7.27
2019-05-18T19:29:19.272Z,7.00
2019-05-18T19:31:48.815Z,6.72
2019-05-18T19:34:18.077Z,6.30
2019-05-18T19:36:47.413Z,5.97
2019-05-18T19:39:16.545Z,7.25
2019-05-18T19:41:45.943Z,8.08
2019-05-18T19:44:15.254Z,6.70
2019-05-18T19:46:44.752Z,6.55
2019-05-18T19:49:14.101Z,7.03
2019-05-18T19:51:43.622Z,7.17
2019-05-18T19:54:13.007Z,8.00
2019-05-18T19:56:43.752Z,7.22
2019-05-18T19:59:13.321Z,8.10
2019-05-18T20:01:42.810Z,7.62
2019-05-18T20:04:13.398Z,7.90
2019-05-18T20:06:45.267Z,8.53
2019-05-18T20:09:14.439Z,8.53
2019-05-18T20:11:43.770Z,9.40
2019-05-18T20:14:12.815Z,9.08
2019-05-18T20:16:42.285Z,7.17
2019-05-18T20:19:11.554Z,9.65
2019-05-18T20:21:40.673Z,9.95
2019-05-18T20:24:09.852Z,10.35
2019-05-18T20:26:39.088Z,11.43
2019-05-18T20:29:08.448Z,10.20
2019-05-18T20:31:37.726Z,10.30
2019-05-18T20:34:06.948Z,13.88
2019-05-18T20:36:36.581Z,12.10
2019-05-18T20:39:06.177Z,13.53
2019-05-18T20:41:35.503Z,10.55
2019-05-18T20:44:08.815Z,11.20
2019-05-18T20:46:38.050Z,12.00
2019-05-18T20:49:07.553Z,11.15
2019-05-18T20:51:36.803Z,12.35
2019-05-18T20:54:06.320Z,11.75
2019-05-18T20:56:35.735Z,12.18
2019-05-18T20:59:05.136Z,11.85
2019-05-18T21:01:34.724Z,12.03
2019-05-18T21:04:04.114Z,12.37
2019-05-18T21:06:33.517Z,18.02
2019-05-18T21:09:03.331Z,21.05
2019-05-18T21:11:32.485Z,29.15
2019-05-18T21:14:01.790Z,16.73
2019-05-18T21:16:31.135Z,15.13
2019-05-18T21:19:03.399Z,13.50
2019-05-18T21:21:33.760Z,14.38
2019-05-18T21:24:05.929Z,13.40
2019-05-18T21:26:35.475Z,12.60
2019-05-18T21:29:04.846Z,13.45
2019-05-18T21:31:36.719Z,14.30
2019-05-18T21:34:05.964Z,17.07
2019-05-18T21:36:35.392Z,15.78
2019-05-18T21:39:06.368Z,16.10
2019-05-18T21:41:35.941Z,16.30
2019-05-18T21:44:05.442Z,15.38
2019-05-18T21:46:34.701Z,17.00
2019-05-18T21:49:04.349Z,14.78
2019-05-18T21:51:33.656Z,16.80
2019-05-18T21:54:03.097Z,15.43
2019-05-18T21:56:32.388Z,15.18
2019-05-18T21:59:11.233Z,14.65
2019-05-18T22:01:33.560Z,14.15
2019-05-18T22:04:02.885Z,14.63
2019-05-18T22:06:32.063Z,23.22
2019-05-18T22:09:01.560Z,21.15
2019-05-18T22:11:30.941Z,18.98
2019-05-18T22:14:00.356Z,15.28
2019-05-18T22:16:29.645Z,20.05
2019-05-18T22:18:59.132Z,18.95
2019-05-18T22:21:28.431Z,18.12
2019-05-18T22:23:57.810Z,18.00
2019-05-18T22:26:27.217Z,18.90
2019-05-18T22:28:56.609Z,19.20
2019-05-18T22:31:25.912Z,21.20
2019-05-18T22:33:55.315Z,20.30
2019-05-18T22:36:24.777Z,20.15
2019-05-18T22:38:54.198Z,20.30
2019-05-18T22:41:23.667Z,20.68
2019-05-18T22:43:53.241Z,19.32
2019-05-18T22:46:22.662Z,20.50
2019-05-18T22:48:52.081Z,21.70
2019-05-18T22:51:21.350Z,21.17
2019-05-18T22:53:51.025Z,21.87
2019-05-18T22:56:20.502Z,20.70
2019-05-18T22:58:49.973Z,21.17
2019-05-18T23:01:22.038Z,20.72
2019-05-18T23:03:51.859Z,23.80
2019-05-18T23:08:49.795Z,21.95
2019-05-18T23:11:19.299Z,22.90
2019-05-18T23:13:48.859Z,21.37
2019-05-18T23:16:18.466Z,19.73
2019-05-18T23:18:56.423Z,21.65
2019-05-18T23:21:19.236Z,21.20
2019-05-18T23:23:53.458Z,21.12
2019-05-18T23:26:22.961Z,20.62
2019-05-18T23:28:52.311Z,20.52
2019-05-18T23:31:21.778Z,17.77
2019-05-18T23:33:51.123Z,19.65
2019-05-18T23:36:20.393Z,19.30
2019-05-18T23:38:49.998Z,19.48
2019-05-18T23:41:19.396Z,19.50
2019-05-18T23:43:48.803Z,18.87
2019-05-18T23:46:18.098Z,18.32
2019-05-18T23:48:47.428Z,16.35
2019-05-18T23:51:16.644Z,18.42
2019-05-18T23:53:45.848Z,17.20
2019-05-18T23:56:15.176Z,17.10
2019-05-18T23:58:44.445Z,18.25
